sensor_id;sensor_type;location;lat;lon;timestamp;pressure;altitude;pressure_sealevel;temperature;humidity
54512;BME280;40419;47.438;19.026;2023-05-09T00:02:13;100646.84;;;8.66;66.74
54512;BME280;40419;47.438;19.026;2023-05-09T00:04:42;100653.75;;;8.60;66.79
54512;BME280;40419;47.438;19.026;2023-05-09T00:07:07;100660.34;;;8.41;68.50
54512;BME280;40419;47.438;19.026;2023-05-09T00:09:38;100654.13;;;8.49;67.79
54512;BME280;40419;47.438;19.026;2023-05-09T00:12:04;100654.09;;;8.74;66.81
54512;BME280;40419;47.438;19.026;2023-05-09T00:14:30;100655.31;;;8.55;68.07
54512;BME280;40419;47.438;19.026;2023-05-09T00:16:58;100653.28;;;8.48;68.79
54512;BME280;40419;47.438;19.026;2023-05-09T00:19:26;100653.63;;;8.54;67.69
54512;BME280;40419;47.438;19.026;2023-05-09T00:21:54;100652.59;;;8.38;68.77
54512;BME280;40419;47.438;19.026;2023-05-09T00:24:20;100645.19;;;8.48;68.27
54512;BME280;40419;47.438;19.026;2023-05-09T00:26:48;100650.88;;;8.37;68.57
54512;BME280;40419;47.438;19.026;2023-05-09T00:29:19;100651.75;;;8.54;68.50
54512;BME280;40419;47.438;19.026;2023-05-09T00:31:50;100633.53;;;8.23;69.38
54512;BME280;40419;47.438;19.026;2023-05-09T00:34:15;100635.53;;;8.21;69.46
54512;BME280;40419;47.438;19.026;2023-05-09T00:36:41;100636.41;;;8.22;68.69
54512;BME280;40419;47.438;19.026;2023-05-09T00:39:06;100638.06;;;8.31;69.16
54512;BME280;40419;47.438;19.026;2023-05-09T00:41:32;100638.06;;;8.31;69.27
54512;BME280;40419;47.438;19.026;2023-05-09T00:44:00;100636.59;;;8.45;69.31
54512;BME280;40419;47.438;19.026;2023-05-09T00:46:25;100637.59;;;8.52;68.57
54512;BME280;40419;47.438;19.026;2023-05-09T00:48:52;100635.19;;;8.24;70.70
54512;BME280;40419;47.438;19.026;2023-05-09T00:51:20;100642.63;;;8.22;70.24
54512;BME280;40419;47.438;19.026;2023-05-09T00:53:46;100638.22;;;8.21;70.04
54512;BME280;40419;47.438;19.026;2023-05-09T00:56:13;100633.03;;;8.44;69.30
54512;BME280;40419;47.438;19.026;2023-05-09T00:58:41;100634.03;;;8.10;70.88
54512;BME280;40419;47.438;19.026;2023-05-09T01:01:10;100642.44;;;8.07;71.02
54512;BME280;40419;47.438;19.026;2023-05-09T01:03:37;100641.44;;;8.33;69.39
54512;BME280;40419;47.438;19.026;2023-05-09T01:06:05;100631.81;;;8.06;70.41
54512;BME280;40419;47.438;19.026;2023-05-09T01:09:03;100638.06;;;8.31;69.92
54512;BME280;40419;47.438;19.026;2023-05-09T01:11:36;100633.19;;;8.10;71.68
54512;BME280;40419;47.438;19.026;2023-05-09T01:17:15;100638.25;;;8.13;70.10
54512;BME280;40419;47.438;19.026;2023-05-09T01:20:37;100628.97;;;7.99;70.87
54512;BME280;40419;47.438;19.026;2023-05-09T01:26:05;100635.72;;;8.03;72.17
54512;BME280;40419;47.438;19.026;2023-05-09T01:31:23;100630.34;;;8.03;71.51
54512;BME280;40419;47.438;19.026;2023-05-09T01:33:58;100620.03;;;7.90;71.55
54512;BME280;40419;47.438;19.026;2023-05-09T01:36:29;100630.34;;;8.03;71.25
54512;BME280;40419;47.438;19.026;2023-05-09T01:39:01;100639.22;;;7.87;72.59
54512;BME280;40419;47.438;19.026;2023-05-09T01:41:35;100628.28;;;7.97;72.19
54512;BME280;40419;47.438;19.026;2023-05-09T01:44:07;100624.09;;;8.19;71.65
54512;BME280;40419;47.438;19.026;2023-05-09T01:46:35;100621.38;;;8.03;72.78
54512;BME280;40419;47.438;19.026;2023-05-09T01:49:06;100609.25;;;8.07;72.12
54512;BME280;40419;47.438;19.026;2023-05-09T01:51:36;100613.47;;;7.93;72.68
54512;BME280;40419;47.438;19.026;2023-05-09T01:54:02;100619.19;;;7.90;73.03
54512;BME280;40419;47.438;19.026;2023-05-09T01:56:35;100617.66;;;7.87;74.38
54512;BME280;40419;47.438;19.026;2023-05-09T01:59:05;100611.09;;;7.98;73.05
54512;BME280;40419;47.438;19.026;2023-05-09T02:01:34;100611.94;;;7.90;73.23
54512;BME280;40419;47.438;19.026;2023-05-09T02:04:04;100612.78;;;8.24;70.86
54512;BME280;40419;47.438;19.026;2023-05-09T02:06:33;100613.09;;;7.88;73.27
54512;BME280;40419;47.438;19.026;2023-05-09T02:09:02;100614.47;;;7.92;74.46
54512;BME280;40419;47.438;19.026;2023-05-09T02:11:28;100607.06;;;8.02;75.16
54512;BME280;40419;47.438;19.026;2023-05-09T02:13:53;100604.03;;;8.05;75.28
54512;BME280;40419;47.438;19.026;2023-05-09T02:16:27;100603.69;;;7.84;77.09
54512;BME280;40419;47.438;19.026;2023-05-09T02:18:57;100597.53;;;7.49;78.93
54512;BME280;40419;47.438;19.026;2023-05-09T02:21:26;100599.47;;;7.81;78.11
54512;BME280;40419;47.438;19.026;2023-05-09T02:23:56;100603.31;;;7.70;78.51
54512;BME280;40419;47.438;19.026;2023-05-09T02:26:25;100598.09;;;7.69;78.18
54512;BME280;40419;47.438;19.026;2023-05-09T02:28:57;100609.25;;;7.82;78.59
54512;BME280;40419;47.438;19.026;2023-05-09T02:31:26;100592.34;;;7.63;79.44
54512;BME280;40419;47.438;19.026;2023-05-09T02:33:56;100599.94;;;7.68;79.39
54512;BME280;40419;47.438;19.026;2023-05-09T02:36:22;100595.03;;;7.55;79.55
54512;BME280;40419;47.438;19.026;2023-05-09T02:38:50;100593.88;;;7.66;78.70
54512;BME280;40419;47.438;19.026;2023-05-09T02:41:19;100599.94;;;7.60;79.34
54512;BME280;40419;47.438;19.026;2023-05-09T02:43:48;100589.09;;;7.43;80.01
54512;BME280;40419;47.438;19.026;2023-05-09T02:46:14;100588.94;;;7.37;80.66
54512;BME280;40419;47.438;19.026;2023-05-09T02:48:42;100599.56;;;7.47;80.10
54512;BME280;40419;47.438;19.026;2023-05-09T02:51:12;100597.81;;;7.29;81.83
54512;BME280;40419;47.438;19.026;2023-05-09T02:53:40;100590.47;;;7.48;80.53
54512;BME280;40419;47.438;19.026;2023-05-09T02:56:05;100595.50;;;7.42;81.20
54512;BME280;40419;47.438;19.026;2023-05-09T02:58:31;100595.38;;;7.60;80.03
54512;BME280;40419;47.438;19.026;2023-05-09T03:01:01;100594.69;;;7.58;79.80
54512;BME280;40419;47.438;19.026;2023-05-09T03:03:29;100583.53;;;7.37;79.96
54512;BME280;40419;47.438;19.026;2023-05-09T03:05:58;100584.06;;;7.49;80.48
54512;BME280;40419;47.438;19.026;2023-05-09T03:08:29;100581.56;;;7.55;80.06
54512;BME280;40419;47.438;19.026;2023-05-09T03:10:55;100592.94;;;7.33;81.10
54512;BME280;40419;47.438;19.026;2023-05-09T03:13:22;100578.75;;;7.14;82.63
54512;BME280;40419;47.438;19.026;2023-05-09T03:15:50;100586.84;;;7.14;82.19
54512;BME280;40419;47.438;19.026;2023-05-09T03:18:16;100578.94;;;7.29;81.72
54512;BME280;40419;47.438;19.026;2023-05-09T03:20:41;100593.22;;;7.13;82.40
54512;BME280;40419;47.438;19.026;2023-05-09T03:23:12;100590.22;;;7.24;82.16
54512;BME280;40419;47.438;19.026;2023-05-09T03:25:40;100586.41;;;7.35;80.13
54512;BME280;40419;47.438;19.026;2023-05-09T03:28:10;100594.91;;;7.73;78.47
54512;BME280;40419;47.438;19.026;2023-05-09T03:30:36;100588.44;;;7.41;79.18
54512;BME280;40419;47.438;19.026;2023-05-09T03:33:08;100586.78;;;7.57;78.58
54512;BME280;40419;47.438;19.026;2023-05-09T03:35:35;100582.09;;;7.67;78.43
54512;BME280;40419;47.438;19.026;2023-05-09T03:38:06;100593.50;;;7.53;78.68
54512;BME280;40419;47.438;19.026;2023-05-09T03:40:34;100592.06;;;7.91;78.53
54512;BME280;40419;47.438;19.026;2023-05-09T03:43:06;100595.91;;;8.13;77.42
54512;BME280;40419;47.438;19.026;2023-05-09T03:45:35;100592.50;;;8.69;73.51
54512;BME280;40419;47.438;19.026;2023-05-09T03:48:05;100607.00;;;8.76;72.25
54512;BME280;40419;47.438;19.026;2023-05-09T03:50:40;100595.16;;;8.94;71.81
54512;BME280;40419;47.438;19.026;2023-05-09T03:53:12;100598.75;;;9.17;71.01
54512;BME280;40419;47.438;19.026;2023-05-09T03:55:41;100596.81;;;9.03;71.72
54512;BME280;40419;47.438;19.026;2023-05-09T03:58:11;100599.78;;;9.16;70.37
54512;BME280;40419;47.438;19.026;2023-05-09T04:00:44;100597.75;;;9.18;72.08
54512;BME280;40419;47.438;19.026;2023-05-09T04:03:20;100597.53;;;8.89;73.02
54512;BME280;40419;47.438;19.026;2023-05-09T04:05:52;100597.16;;;9.00;72.55
54512;BME280;40419;47.438;19.026;2023-05-09T04:08:36;100600.81;;;8.59;75.29
54512;BME280;40419;47.438;19.026;2023-05-09T04:11:03;100596.22;;;8.76;73.39
54512;BME280;40419;47.438;19.026;2023-05-09T04:13:29;100601.63;;;8.43;75.50
54512;BME280;40419;47.438;19.026;2023-05-09T04:16:02;100595.75;;;8.56;75.59
54512;BME280;40419;47.438;19.026;2023-05-09T04:18:33;100605.03;;;8.54;74.88
54512;BME280;40419;47.438;19.026;2023-05-09T04:21:04;100601.16;;;8.56;76.08
54512;BME280;40419;47.438;19.026;2023-05-09T04:23:32;100595.38;;;8.67;73.00
54512;BME280;40419;47.438;19.026;2023-05-09T04:25:58;100608.75;;;8.61;73.52
54512;BME280;40419;47.438;19.026;2023-05-09T04:28:24;100590.78;;;8.84;73.72
54512;BME280;40419;47.438;19.026;2023-05-09T04:30:59;100592.88;;;9.14;71.54
54512;BME280;40419;47.438;19.026;2023-05-09T04:33:26;100593.69;;;9.14;72.65
54512;BME280;40419;47.438;19.026;2023-05-09T04:35:58;100597.63;;;9.43;70.88
54512;BME280;40419;47.438;19.026;2023-05-09T04:38:27;100596.53;;;9.52;71.69
54512;BME280;40419;47.438;19.026;2023-05-09T04:41:02;100600.19;;;9.68;70.58
54512;BME280;40419;47.438;19.026;2023-05-09T04:43:32;100604.97;;;9.26;72.08
54512;BME280;40419;47.438;19.026;2023-05-09T04:46:00;100596.22;;;9.24;71.82
54512;BME280;40419;47.438;19.026;2023-05-09T04:48:30;100593.81;;;9.29;71.68
54512;BME280;40419;47.438;19.026;2023-05-09T04:50:58;100603.03;;;9.03;71.63
54512;BME280;40419;47.438;19.026;2023-05-09T04:53:23;100602.94;;;9.28;72.64
54512;BME280;40419;47.438;19.026;2023-05-09T04:55:56;100601.03;;;9.37;70.68
54512;BME280;40419;47.438;19.026;2023-05-09T04:58:24;100596.22;;;9.24;71.36
54512;BME280;40419;47.438;19.026;2023-05-09T05:00:53;100595.38;;;9.78;70.73
54512;BME280;40419;47.438;19.026;2023-05-09T05:03:19;100601.47;;;9.17;70.57
54512;BME280;40419;47.438;19.026;2023-05-09T05:05:45;100614.97;;;9.17;70.72
54512;BME280;40419;47.438;19.026;2023-05-09T05:08:13;100609.13;;;9.45;70.12
54512;BME280;40419;47.438;19.026;2023-05-09T05:10:41;100609.13;;;9.37;69.42
54512;BME280;40419;47.438;19.026;2023-05-09T05:13:10;100615.88;;;9.41;70.43
54512;BME280;40419;47.438;19.026;2023-05-09T05:15:40;100606.50;;;9.29;69.81
54512;BME280;40419;47.438;19.026;2023-05-09T05:18:09;100614.00;;;9.42;69.88
54512;BME280;40419;47.438;19.026;2023-05-09T05:20:35;100606.25;;;9.70;69.38
54512;BME280;40419;47.438;19.026;2023-05-09T05:23:00;100613.53;;;9.38;69.04
54512;BME280;40419;47.438;19.026;2023-05-09T05:25:30;100609.50;;;9.65;68.99
54512;BME280;40419;47.438;19.026;2023-05-09T05:28:01;100616.63;;;9.58;68.41
54512;BME280;40419;47.438;19.026;2023-05-09T05:30:29;100606.97;;;9.87;68.77
54512;BME280;40419;47.438;19.026;2023-05-09T05:32:55;100622.00;;;9.89;68.56
54512;BME280;40419;47.438;19.026;2023-05-09T05:35:22;100613.59;;;10.07;67.38
54512;BME280;40419;47.438;19.026;2023-05-09T05:37:55;100609.47;;;9.97;68.65
54512;BME280;40419;47.438;19.026;2023-05-09T05:40:21;100608.97;;;9.93;66.40
54512;BME280;40419;47.438;19.026;2023-05-09T05:42:48;100615.81;;;10.04;67.76
54512;BME280;40419;47.438;19.026;2023-05-09T05:45:14;100611.34;;;10.11;65.46
54512;BME280;40419;47.438;19.026;2023-05-09T05:47:44;100614.78;;;10.05;67.98
54512;BME280;40419;47.438;19.026;2023-05-09T05:50:11;100606.81;;;10.26;65.13
54512;BME280;40419;47.438;19.026;2023-05-09T05:52:40;100611.22;;;10.27;65.23
54512;BME280;40419;47.438;19.026;2023-05-09T05:55:08;100606.56;;;9.98;69.43
54512;BME280;40419;47.438;19.026;2023-05-09T05:57:34;100618.34;;;10.28;65.17
54512;BME280;40419;47.438;19.026;2023-05-09T06:00:04;100619.13;;;9.91;67.36
54512;BME280;40419;47.438;19.026;2023-05-09T06:02:42;100618.31;;;10.05;67.60
54512;BME280;40419;47.438;19.026;2023-05-09T06:05:19;100610.53;;;10.10;67.45
54512;BME280;40419;47.438;19.026;2023-05-09T06:07:44;100618.59;;;10.42;66.19
54512;BME280;40419;47.438;19.026;2023-05-09T06:10:12;100621.69;;;10.69;65.98
54512;BME280;40419;47.438;19.026;2023-05-09T06:12:43;100624.06;;;10.34;67.04
54512;BME280;40419;47.438;19.026;2023-05-09T06:15:12;100624.16;;;10.93;66.38
54512;BME280;40419;47.438;19.026;2023-05-09T06:17:43;100622.38;;;10.71;65.86
54512;BME280;40419;47.438;19.026;2023-05-09T06:20:09;100621.06;;;10.96;65.97
54512;BME280;40419;47.438;19.026;2023-05-09T06:22:34;100617.88;;;11.08;65.64
54512;BME280;40419;47.438;19.026;2023-05-09T06:25:06;100609.94;;;10.76;65.27
54512;BME280;40419;47.438;19.026;2023-05-09T06:27:32;100607.50;;;11.26;61.63
54512;BME280;40419;47.438;19.026;2023-05-09T06:29:59;100610.47;;;11.31;62.23
54512;BME280;40419;47.438;19.026;2023-05-09T06:32:28;100603.84;;;11.34;66.22
54512;BME280;40419;47.438;19.026;2023-05-09T06:34:53;100603.50;;;11.22;66.04
54512;BME280;40419;47.438;19.026;2023-05-09T06:37:21;100600.09;;;11.35;63.33
54512;BME280;40419;47.438;19.026;2023-05-09T06:39:46;100605.88;;;11.47;62.51
54512;BME280;40419;47.438;19.026;2023-05-09T06:42:12;100619.72;;;11.52;61.98
54512;BME280;40419;47.438;19.026;2023-05-09T06:44:48;100609.78;;;11.96;59.76
54512;BME280;40419;47.438;19.026;2023-05-09T06:47:16;100596.41;;;11.94;59.90
54512;BME280;40419;47.438;19.026;2023-05-09T06:49:46;100593.91;;;11.78;60.71
54512;BME280;40419;47.438;19.026;2023-05-09T06:52:12;100582.34;;;11.91;61.99
54512;BME280;40419;47.438;19.026;2023-05-09T06:54:40;100599.81;;;12.25;62.10
54512;BME280;40419;47.438;19.026;2023-05-09T06:57:07;100597.81;;;12.12;60.84
54512;BME280;40419;47.438;19.026;2023-05-09T06:59:35;100593.34;;;12.04;58.85
54512;BME280;40419;47.438;19.026;2023-05-09T07:02:06;100583.34;;;11.89;59.60
54512;BME280;40419;47.438;19.026;2023-05-09T07:04:31;100587.19;;;11.74;59.00
54512;BME280;40419;47.438;19.026;2023-05-09T07:07:04;100583.25;;;12.19;58.72
54512;BME280;40419;47.438;19.026;2023-05-09T07:09:32;100583.88;;;11.93;60.00
54512;BME280;40419;47.438;19.026;2023-05-09T07:12:01;100586.56;;;11.93;58.94
54512;BME280;40419;47.438;19.026;2023-05-09T07:14:26;100580.81;;;12.03;60.58
54512;BME280;40419;47.438;19.026;2023-05-09T07:16:52;100593.78;;;12.29;58.73
54512;BME280;40419;47.438;19.026;2023-05-09T07:19:22;100571.72;;;12.39;60.73
54512;BME280;40419;47.438;19.026;2023-05-09T07:21:47;100583.16;;;12.34;59.42
54512;BME280;40419;47.438;19.026;2023-05-09T07:24:13;100562.44;;;12.55;59.10
54512;BME280;40419;47.438;19.026;2023-05-09T07:26:41;100578.47;;;12.50;58.39
54512;BME280;40419;47.438;19.026;2023-05-09T07:29:11;100564.59;;;12.66;57.93
54512;BME280;40419;47.438;19.026;2023-05-09T07:31:41;100576.53;;;12.72;59.07
54512;BME280;40419;47.438;19.026;2023-05-09T07:34:11;100567.69;;;12.35;58.88
54512;BME280;40419;47.438;19.026;2023-05-09T07:36:39;100570.47;;;12.41;59.81
54512;BME280;40419;47.438;19.026;2023-05-09T07:39:07;100552.06;;;12.65;59.57
54512;BME280;40419;47.438;19.026;2023-05-09T07:41:35;100550.63;;;13.11;58.23
54512;BME280;40419;47.438;19.026;2023-05-09T07:44:01;100558.34;;;13.07;58.46
54512;BME280;40419;47.438;19.026;2023-05-09T07:46:26;100552.56;;;13.30;56.48
54512;BME280;40419;47.438;19.026;2023-05-09T07:48:56;100556.06;;;13.18;57.64
54512;BME280;40419;47.438;19.026;2023-05-09T07:51:22;100540.28;;;12.93;58.66
54512;BME280;40419;47.438;19.026;2023-05-09T07:53:50;100539.59;;;13.33;58.98
54512;BME280;40419;47.438;19.026;2023-05-09T07:56:16;100542.19;;;13.41;57.62
54512;BME280;40419;47.438;19.026;2023-05-09T07:58:41;100543.03;;;13.55;58.48
54512;BME280;40419;47.438;19.026;2023-05-09T08:01:07;100543.91;;;13.69;57.32
54512;BME280;40419;47.438;19.026;2023-05-09T08:03:34;100536.75;;;13.47;55.38
54512;BME280;40419;47.438;19.026;2023-05-09T08:06:04;100537.22;;;13.71;58.28
54512;BME280;40419;47.438;19.026;2023-05-09T08:08:35;100529.69;;;13.80;56.53
54512;BME280;40419;47.438;19.026;2023-05-09T08:11:03;100518.19;;;13.98;56.93
54512;BME280;40419;47.438;19.026;2023-05-09T08:13:33;100525.50;;;13.91;56.18
54512;BME280;40419;47.438;19.026;2023-05-09T08:16:04;100518.38;;;13.90;54.94
54512;BME280;40419;47.438;19.026;2023-05-09T08:18:34;100525.28;;;13.86;54.78
54512;BME280;40419;47.438;19.026;2023-05-09T08:20:59;100519.66;;;14.07;57.39
54512;BME280;40419;47.438;19.026;2023-05-09T08:23:29;100521.53;;;14.00;52.77
54512;BME280;40419;47.438;19.026;2023-05-09T08:25:55;100518.34;;;13.63;53.57
54512;BME280;40419;47.438;19.026;2023-05-09T08:28:27;100522.78;;;14.11;54.06
54512;BME280;40419;47.438;19.026;2023-05-09T08:30:54;100514.81;;;14.36;55.15
54512;BME280;40419;47.438;19.026;2023-05-09T08:33:23;100521.75;;;14.12;53.51
54512;BME280;40419;47.438;19.026;2023-05-09T08:35:50;100514.56;;;14.44;55.34
54512;BME280;40419;47.438;19.026;2023-05-09T08:38:16;100517.88;;;14.60;53.83
54512;BME280;40419;47.438;19.026;2023-05-09T08:40:41;100521.91;;;14.37;52.04
54512;BME280;40419;47.438;19.026;2023-05-09T08:43:09;100521.72;;;14.32;52.21
54512;BME280;40419;47.438;19.026;2023-05-09T08:45:45;100515.66;;;14.43;52.70
54512;BME280;40419;47.438;19.026;2023-05-09T08:48:14;100513.72;;;14.70;52.57
54512;BME280;40419;47.438;19.026;2023-05-09T08:50:42;100513.28;;;14.74;52.53
54512;BME280;40419;47.438;19.026;2023-05-09T08:53:13;100526.31;;;14.65;52.44
54512;BME280;40419;47.438;19.026;2023-05-09T08:55:39;100514.56;;;14.58;52.43
54512;BME280;40419;47.438;19.026;2023-05-09T08:58:12;100500.63;;;14.99;50.31
54512;BME280;40419;47.438;19.026;2023-05-09T09:00:38;100517.59;;;15.01;50.78
54512;BME280;40419;47.438;19.026;2023-05-09T09:03:05;100498.84;;;15.18;50.71
54512;BME280;40419;47.438;19.026;2023-05-09T09:05:36;100499.91;;;14.45;52.02
54512;BME280;40419;47.438;19.026;2023-05-09T09:08:03;100498.97;;;14.85;52.34
54512;BME280;40419;47.438;19.026;2023-05-09T09:10:34;100484.22;;;15.06;51.72
54512;BME280;40419;47.438;19.026;2023-05-09T09:13:02;100477.66;;;15.52;53.00
54512;BME280;40419;47.438;19.026;2023-05-09T09:15:35;100496.38;;;15.74;51.04
54512;BME280;40419;47.438;19.026;2023-05-09T09:18:07;100475.84;;;15.39;48.78
54512;BME280;40419;47.438;19.026;2023-05-09T09:20:40;100493.09;;;15.65;49.82
54512;BME280;40419;47.438;19.026;2023-05-09T09:23:12;100483.13;;;15.84;47.58
54512;BME280;40419;47.438;19.026;2023-05-09T09:25:46;100482.38;;;15.95;49.70
54512;BME280;40419;47.438;19.026;2023-05-09T09:28:12;100488.38;;;15.79;45.05
54512;BME280;40419;47.438;19.026;2023-05-09T09:30:46;100482.59;;;15.94;45.33
54512;BME280;40419;47.438;19.026;2023-05-09T09:33:21;100474.38;;;16.44;44.90
54512;BME280;40419;47.438;19.026;2023-05-09T09:35:50;100479.78;;;16.26;45.72
54512;BME280;40419;47.438;19.026;2023-05-09T09:38:20;100484.84;;;16.47;45.32
54512;BME280;40419;47.438;19.026;2023-05-09T09:40:58;100488.41;;;16.48;45.39
54512;BME280;40419;47.438;19.026;2023-05-09T09:43:28;100495.59;;;16.42;45.96
54512;BME280;40419;47.438;19.026;2023-05-09T09:45:53;100479.16;;;15.48;46.81
54512;BME280;40419;47.438;19.026;2023-05-09T09:48:34;100474.63;;;15.67;47.26
54512;BME280;40419;47.438;19.026;2023-05-09T09:51:07;100469.34;;;15.98;46.21
54512;BME280;40419;47.438;19.026;2023-05-09T09:53:43;100462.09;;;15.85;47.44
54512;BME280;40419;47.438;19.026;2023-05-09T09:56:12;100466.81;;;16.21;46.26
54512;BME280;40419;47.438;19.026;2023-05-09T09:58:42;100467.97;;;15.88;47.49
54512;BME280;40419;47.438;19.026;2023-05-09T10:01:13;100461.84;;;15.93;47.09
54512;BME280;40419;47.438;19.026;2023-05-09T10:03:43;100456.88;;;15.19;48.46
54512;BME280;40419;47.438;19.026;2023-05-09T10:06:15;100457.16;;;15.43;46.87
54512;BME280;40419;47.438;19.026;2023-05-09T10:08:44;100453.41;;;15.94;46.14
54512;BME280;40419;47.438;19.026;2023-05-09T10:11:15;100461.09;;;15.79;47.40
54512;BME280;40419;47.438;19.026;2023-05-09T10:13:41;100460.25;;;16.29;44.84
54512;BME280;40419;47.438;19.026;2023-05-09T10:16:10;100457.56;;;15.97;47.34
54512;BME280;40419;47.438;19.026;2023-05-09T10:18:36;100475.22;;;15.05;47.30
54512;BME280;40419;47.438;19.026;2023-05-09T10:21:02;100462.16;;;15.46;46.19
54512;BME280;40419;47.438;19.026;2023-05-09T10:23:30;100447.22;;;16.06;45.33
54512;BME280;40419;47.438;19.026;2023-05-09T10:26:07;100452.41;;;16.51;46.32
54512;BME280;40419;47.438;19.026;2023-05-09T10:28:38;100459.44;;;15.78;44.36
54512;BME280;40419;47.438;19.026;2023-05-09T10:31:21;100448.28;;;15.80;41.89
54512;BME280;40419;47.438;19.026;2023-05-09T10:33:52;100450.63;;;16.01;45.07
54512;BME280;40419;47.438;19.026;2023-05-09T10:36:23;100440.56;;;16.57;43.62
54512;BME280;40419;47.438;19.026;2023-05-09T10:38:53;100439.63;;;17.00;42.44
54512;BME280;40419;47.438;19.026;2023-05-09T10:41:21;100443.03;;;16.03;46.27
54512;BME280;40419;47.438;19.026;2023-05-09T10:43:50;100452.47;;;15.82;45.61
54512;BME280;40419;47.438;19.026;2023-05-09T10:46:16;100437.50;;;15.59;46.85
54512;BME280;40419;47.438;19.026;2023-05-09T10:48:42;100443.81;;;15.28;45.99
54512;BME280;40419;47.438;19.026;2023-05-09T10:51:11;100443.94;;;15.65;46.27
54512;BME280;40419;47.438;19.026;2023-05-09T10:58:47;100448.63;;;16.34;44.96
54512;BME280;40419;47.438;19.026;2023-05-09T11:01:15;100443.63;;;16.49;44.62
54512;BME280;40419;47.438;19.026;2023-05-09T11:03:56;100455.41;;;16.06;43.57
54512;BME280;40419;47.438;19.026;2023-05-09T11:06:55;100436.88;;;15.57;45.64
54512;BME280;40419;47.438;19.026;2023-05-09T11:12:14;100424.63;;;16.54;44.34
54512;BME280;40419;47.438;19.026;2023-05-09T11:14:46;100426.22;;;16.62;45.01
54512;BME280;40419;47.438;19.026;2023-05-09T11:22:19;100437.38;;;16.05;47.33
54512;BME280;40419;47.438;19.026;2023-05-09T11:24:47;100422.16;;;15.90;47.31
54512;BME280;40419;47.438;19.026;2023-05-09T11:27:24;100417.69;;;15.96;47.18
54512;BME280;40419;47.438;19.026;2023-05-09T11:30:03;100419.47;;;15.58;45.90
54512;BME280;40419;47.438;19.026;2023-05-09T11:32:30;100415.38;;;15.68;45.77
54512;BME280;40419;47.438;19.026;2023-05-09T11:35:09;100414.78;;;15.66;45.66
54512;BME280;40419;47.438;19.026;2023-05-09T11:37:44;100403.03;;;15.90;46.70
54512;BME280;40419;47.438;19.026;2023-05-09T11:40:10;100411.78;;;15.99;45.76
54512;BME280;40419;47.438;19.026;2023-05-09T11:42:46;100406.47;;;15.79;45.60
54512;BME280;40419;47.438;19.026;2023-05-09T11:45:17;100407.66;;;15.90;45.75
54512;BME280;40419;47.438;19.026;2023-05-09T11:47:48;100409.22;;;15.79;47.49
54512;BME280;40419;47.438;19.026;2023-05-09T11:50:17;100411.91;;;15.86;46.48
54512;BME280;40419;47.438;19.026;2023-05-09T11:52:45;100398.56;;;15.96;43.94
54512;BME280;40419;47.438;19.026;2023-05-09T11:55:16;100391.81;;;16.54;43.73
54512;BME280;40419;47.438;19.026;2023-05-09T11:57:47;100400.97;;;16.78;44.54
54512;BME280;40419;47.438;19.026;2023-05-09T12:00:18;100391.66;;;16.12;44.95
54512;BME280;40419;47.438;19.026;2023-05-09T12:02:47;100389.25;;;16.22;45.08
54512;BME280;40419;47.438;19.026;2023-05-09T12:05:19;100382.34;;;16.01;47.06
54512;BME280;40419;47.438;19.026;2023-05-09T12:07:45;100372.72;;;16.36;44.28
54512;BME280;40419;47.438;19.026;2023-05-09T12:10:22;100373.34;;;16.68;43.70
54512;BME280;40419;47.438;19.026;2023-05-09T12:12:52;100381.63;;;17.10;42.09
54512;BME280;40419;47.438;19.026;2023-05-09T12:15:19;100375.19;;;16.56;43.30
54512;BME280;40419;47.438;19.026;2023-05-09T12:18:04;100377.34;;;16.35;44.26
54512;BME280;40419;47.438;19.026;2023-05-09T12:20:48;100373.59;;;16.48;45.14
54512;BME280;40419;47.438;19.026;2023-05-09T12:23:17;100368.09;;;16.18;45.18
54512;BME280;40419;47.438;19.026;2023-05-09T12:25:53;100368.84;;;16.25;44.26
54512;BME280;40419;47.438;19.026;2023-05-09T12:28:21;100361.84;;;16.47;44.89
54512;BME280;40419;47.438;19.026;2023-05-09T12:30:46;100365.19;;;16.80;44.70
54512;BME280;40419;47.438;19.026;2023-05-09T12:33:13;100365.91;;;17.06;44.96
54512;BME280;40419;47.438;19.026;2023-05-09T12:35:39;100358.44;;;17.13;44.79
54512;BME280;40419;47.438;19.026;2023-05-09T12:38:06;100348.31;;;17.02;44.63
54512;BME280;40419;47.438;19.026;2023-05-09T12:40:37;100360.13;;;17.14;43.69
54512;BME280;40419;47.438;19.026;2023-05-09T12:43:03;100348.56;;;16.81;45.28
54512;BME280;40419;47.438;19.026;2023-05-09T12:45:31;100349.69;;;17.23;45.35
54512;BME280;40419;47.438;19.026;2023-05-09T12:48:00;100345.47;;;17.08;43.88
54512;BME280;40419;47.438;19.026;2023-05-09T12:50:30;100344.28;;;16.86;44.61
54512;BME280;40419;47.438;19.026;2023-05-09T12:52:59;100346.53;;;16.77;45.99
54512;BME280;40419;47.438;19.026;2023-05-09T12:55:25;100330.97;;;17.08;43.97
54512;BME280;40419;47.438;19.026;2023-05-09T12:58:03;100333.16;;;17.53;42.83
54512;BME280;40419;47.438;19.026;2023-05-09T13:00:45;100326.63;;;17.42;43.93
54512;BME280;40419;47.438;19.026;2023-05-09T13:03:27;100331.97;;;17.49;43.78
54512;BME280;40419;47.438;19.026;2023-05-09T13:06:01;100325.06;;;17.58;44.46
54512;BME280;40419;47.438;19.026;2023-05-09T13:08:31;100316.44;;;16.95;45.16
54512;BME280;40419;47.438;19.026;2023-05-09T13:11:01;100322.56;;;16.60;46.19
54512;BME280;40419;47.438;19.026;2023-05-09T13:13:30;100313.88;;;17.24;44.57
54512;BME280;40419;47.438;19.026;2023-05-09T13:15:59;100314.31;;;17.33;44.16
54512;BME280;40419;47.438;19.026;2023-05-09T13:18:24;100312.56;;;17.39;44.28
54512;BME280;40419;47.438;19.026;2023-05-09T13:20:50;100316.19;;;17.09;45.80